createdAt,value
2018-06-21T04:19:48.982Z,664
2018-06-21T04:20:09.148Z,664
2018-06-21T04:20:29.339Z,664
2018-06-21T04:20:49.515Z,664
2018-06-21T04:21:09.723Z,664
2018-06-21T04:33:36.628Z,724
2018-06-21T04:33:56.893Z,724
2018-06-21T04:40:45.506Z,760
2018-06-21T04:45:41.439Z,768
2018-06-21T04:49:23.127Z,780
2018-06-21T04:52:42.203Z,776
2018-06-21T04:59:27.409Z,756
2018-06-21T05:07:54.264Z,760
2018-06-21T05:23:28.756Z,736
2018-06-21T05:45:34.400Z,736
2018-06-21T05:48:27.895Z,740
2018-06-21T05:48:48.239Z,736
2018-06-21T05:50:07.811Z,740
2018-06-21T05:50:28.131Z,740
2018-06-21T05:51:40.200Z,740
2018-06-21T05:52:00.543Z,744
2018-06-21T05:52:20.890Z,744
2018-06-21T05:52:41.175Z,744
2018-06-21T05:53:01.398Z,744
2018-06-21T05:53:23.644Z,748
2018-06-21T05:53:44.290Z,748
2018-06-21T05:54:04.631Z,752
2018-06-21T05:54:25.035Z,752
2018-06-21T05:54:45.369Z,752
2018-06-21T05:55:07.565Z,756
2018-06-21T05:55:27.998Z,752
2018-06-21T05:55:48.256Z,756
2018-06-21T05:56:08.645Z,756
2018-06-21T05:56:29.088Z,760
2018-06-21T05:56:49.327Z,756
2018-06-21T05:57:09.538Z,760
2018-06-21T05:57:29.746Z,760
2018-06-21T05:57:49.962Z,760
2018-06-21T05:58:11.104Z,760
2018-06-21T05:58:31.386Z,760
2018-06-21T05:58:51.676Z,764
2018-06-21T05:59:12.121Z,768
2018-06-21T05:59:32.462Z,764
2018-06-21T05:59:53.692Z,764
2018-06-21T06:00:14.201Z,768
2018-06-21T06:00:34.565Z,768
2018-06-21T06:00:54.792Z,768
2018-06-21T06:01:15.055Z,772
2018-06-21T06:01:35.295Z,772
2018-06-21T06:01:55.604Z,772
2018-06-21T06:02:15.897Z,772
2018-06-21T06:02:36.182Z,772
2018-06-21T06:02:57.073Z,772
2018-06-21T06:03:17.369Z,772
2018-06-21T06:03:37.655Z,772
2018-06-21T06:03:57.943Z,776
2018-06-21T06:04:18.366Z,772
2018-06-21T06:04:38.546Z,772
2018-06-21T06:04:59.673Z,776
2018-06-21T06:05:19.865Z,772
2018-06-21T06:05:40.141Z,776
2018-06-21T06:06:00.430Z,776
2018-06-21T06:06:20.678Z,776
2018-06-21T06:06:40.858Z,776
2018-06-21T06:07:01.034Z,776
2018-06-21T06:07:21.157Z,776
2018-06-21T06:07:41.570Z,776
2018-06-21T06:08:01.906Z,776
2018-06-21T06:08:22.415Z,776
2018-06-21T06:08:42.500Z,776
2018-06-21T06:09:02.733Z,780
2018-06-21T06:09:23.127Z,784
2018-06-21T06:09:43.335Z,784
2018-06-21T06:10:03.804Z,784
2018-06-21T06:10:24.099Z,784
2018-06-21T06:10:45.094Z,788
2018-06-21T06:11:05.345Z,788
2018-06-21T06:11:25.629Z,788
2018-06-21T06:11:46.124Z,788
2018-06-21T06:12:06.394Z,788
2018-06-21T06:12:26.647Z,788
2018-06-21T06:12:47.631Z,784
2018-06-21T06:13:07.964Z,788
2018-06-21T06:13:28.210Z,788
2018-06-21T06:13:48.397Z,784
2018-06-21T06:14:08.704Z,788
2018-06-21T06:14:29.195Z,788
2018-06-21T06:14:49.454Z,784
2018-06-21T06:15:09.664Z,784
2018-06-21T06:15:29.884Z,784
2018-06-21T06:15:50.554Z,784
2018-06-21T06:16:10.870Z,780
2018-06-21T06:16:31.065Z,780
2018-06-21T06:16:51.517Z,780
2018-06-21T06:17:11.781Z,780
2018-06-21T06:17:32.191Z,780
2018-06-21T06:17:52.470Z,780
2018-06-21T06:18:13.543Z,780
2018-06-21T06:18:33.832Z,780
2018-06-21T06:18:54.445Z,780
2018-06-21T06:19:14.664Z,780
2018-06-21T06:19:35.107Z,784
2018-06-21T06:19:57.184Z,780
2018-06-21T06:20:17.377Z,780
2018-06-21T06:20:37.692Z,784
2018-06-21T06:20:58.073Z,784
2018-06-21T06:21:18.424Z,784
2018-06-21T06:21:38.640Z,788
2018-06-21T06:21:58.974Z,788
2018-06-21T06:22:19.189Z,788
2018-06-21T06:22:39.366Z,788
2018-06-21T06:22:59.659Z,792
2018-06-21T06:23:21.727Z,792
2018-06-21T06:23:41.945Z,788
2018-06-21T06:24:02.111Z,792
2018-06-21T06:24:22.331Z,792
2018-06-21T06:24:42.525Z,796
2018-06-21T06:25:02.912Z,796
2018-06-21T06:25:26.109Z,796
2018-06-21T06:25:47.345Z,796
2018-06-21T06:26:07.647Z,800
2018-06-21T06:26:27.967Z,800
2018-06-21T06:26:48.184Z,800
2018-06-21T06:27:08.473Z,800
2018-06-21T06:27:28.680Z,800
2018-06-21T06:27:49.745Z,804
2018-06-21T06:28:10.032Z,804
2018-06-21T06:28:30.271Z,808
2018-06-21T06:28:50.646Z,808
2018-06-21T06:29:11.007Z,808
2018-06-21T06:29:31.443Z,808
2018-06-21T06:29:51.755Z,812
2018-06-21T06:30:11.986Z,808
2018-06-21T06:30:32.176Z,812
2018-06-21T06:30:52.342Z,808
2018-06-21T06:31:12.661Z,808
2018-06-21T06:31:32.833Z,808
2018-06-21T06:31:53.050Z,804
2018-06-21T06:32:13.247Z,804
2018-06-21T06:32:34.118Z,808
2018-06-21T06:32:55.004Z,804
2018-06-21T06:33:15.298Z,804
2018-06-21T06:33:35.657Z,804
2018-06-21T06:33:56.125Z,800
2018-06-21T06:34:16.526Z,804
2018-06-21T06:34:37.734Z,804
2018-06-21T06:34:58.207Z,804
2018-06-21T06:35:19.170Z,804
2018-06-21T06:35:40.202Z,800
2018-06-21T06:36:00.569Z,800
2018-06-21T06:36:20.923Z,800
2018-06-21T06:36:41.295Z,804
2018-06-21T06:37:01.580Z,804
2018-06-21T06:37:21.879Z,800
2018-06-21T06:37:42.572Z,804
2018-06-21T06:38:02.767Z,804
2018-06-21T06:38:23.032Z,808
2018-06-21T06:38:43.269Z,808
2018-06-21T06:39:03.592Z,812
2018-06-21T06:39:23.818Z,808
2018-06-21T06:39:44.032Z,812
2018-06-21T06:40:05.115Z,812
2018-06-21T06:40:25.341Z,816
2018-06-21T06:40:45.678Z,812
2018-06-21T06:41:06.672Z,816
2018-06-21T06:41:27.495Z,820
2018-06-21T06:41:47.730Z,820
2018-06-21T06:42:07.937Z,820
2018-06-21T06:42:28.150Z,828
2018-06-21T06:42:48.385Z,832
2018-06-21T06:43:08.580Z,840
2018-06-21T06:43:28.746Z,840
2018-06-21T06:43:49.036Z,848
2018-06-21T06:44:10.127Z,852
2018-06-21T06:44:31.216Z,856
2018-06-21T06:44:52.080Z,856
2018-06-21T06:45:13.004Z,864
2018-06-21T06:45:33.322Z,864
2018-06-21T06:45:53.609Z,868
2018-06-21T06:46:13.875Z,872
2018-06-21T06:46:34.710Z,880
2018-06-21T06:46:55.070Z,880
2018-06-21T06:47:16.131Z,884
2018-06-21T06:47:36.361Z,888
2018-06-21T06:47:56.546Z,896
2018-06-21T06:48:16.722Z,956
2018-06-21T06:48:37.554Z,988
2018-06-21T06:48:58.208Z,940
2018-06-21T06:49:18.358Z,904
2018-06-21T06:49:38.637Z,896
2018-06-21T06:49:59.666Z,896
2018-06-21T06:50:19.805Z,876
2018-06-21T06:50:39.996Z,836
2018-06-21T06:51:00.159Z,800
2018-06-21T06:51:20.358Z,736
2018-06-21T06:51:40.523Z,736
2018-06-21T06:52:00.786Z,808
2018-06-21T06:52:21.136Z,796
2018-06-21T06:52:41.348Z,868
2018-06-21T06:53:01.501Z,876
2018-06-21T06:53:21.759Z,868
2018-06-21T06:53:42.492Z,860
2018-06-21T06:54:02.639Z,856
2018-06-21T06:54:22.824Z,856
2018-06-21T06:54:43.017Z,820
2018-06-21T06:55:03.158Z,820
2018-06-21T06:55:23.303Z,860
2018-06-21T06:55:43.477Z,856
2018-06-21T06:56:03.602Z,860
2018-06-21T06:56:23.729Z,860
2018-06-21T06:56:43.888Z,864
2018-06-21T06:57:04.159Z,864
2018-06-21T06:57:24.331Z,860
2018-06-21T06:57:44.517Z,860
2018-06-21T06:58:04.685Z,852
2018-06-21T06:58:24.876Z,856
2018-06-21T06:58:45.035Z,852
2018-06-21T06:59:05.205Z,852
2018-06-21T06:59:25.361Z,856
2018-06-21T06:59:46.502Z,856
2018-06-21T07:00:07.941Z,860
2018-06-21T07:00:29.998Z,864
2018-06-21T07:00:52.212Z,864
2018-06-21T07:01:15.361Z,872
2018-06-21T07:01:36.927Z,872
2018-06-21T07:01:58.344Z,876
2018-06-21T07:02:20.312Z,880
2018-06-21T07:02:42.080Z,880
2018-06-21T07:03:03.246Z,884
2018-06-21T07:03:25.541Z,884
2018-06-21T07:03:47.044Z,884
2018-06-21T07:04:09.088Z,888
2018-06-21T07:04:29.555Z,888
2018-06-21T07:04:49.791Z,892
2018-06-21T07:05:09.941Z,892
2018-06-21T07:05:30.103Z,892
2018-06-21T07:05:50.270Z,900
2018-06-21T07:06:10.516Z,904
2018-06-21T07:06:30.758Z,908
2018-06-21T07:06:50.948Z,912
2018-06-21T07:07:11.169Z,916
2018-06-21T07:07:31.364Z,920
2018-06-21T07:07:51.575Z,924
2018-06-21T07:08:11.758Z,928
2018-06-21T07:08:32.889Z,932
2018-06-21T07:08:53.445Z,928
2018-06-21T07:09:13.630Z,936
2018-06-21T07:09:33.802Z,936
2018-06-21T07:09:54.001Z,936
2018-06-21T07:10:14.184Z,936
2018-06-21T07:10:34.324Z,936
2018-06-21T07:10:54.478Z,940
2018-06-21T07:11:14.652Z,940
2018-06-21T07:11:34.892Z,940
2018-06-21T07:11:55.057Z,940
2018-06-21T07:12:15.221Z,940
2018-06-21T07:12:35.357Z,944
2018-06-21T07:12:55.508Z,940
2018-06-21T07:13:15.649Z,944
2018-06-21T07:13:35.824Z,944
2018-06-21T07:13:56.072Z,944
2018-06-21T07:14:16.319Z,944
2018-06-21T07:14:36.595Z,940
2018-06-21T07:14:56.875Z,940
2018-06-21T07:15:17.034Z,940
2018-06-21T07:15:37.225Z,936
2018-06-21T07:15:57.440Z,940
2018-06-21T07:16:17.669Z,936
2018-06-21T07:16:37.966Z,940
2018-06-21T07:16:58.175Z,936
2018-06-21T07:17:18.481Z,936
2018-06-21T07:17:38.722Z,940
2018-06-21T07:17:58.907Z,936
2018-06-21T07:18:19.258Z,928
2018-06-21T07:18:39.493Z,928
2018-06-21T07:18:59.718Z,928
2018-06-21T07:19:19.890Z,928
2018-06-21T07:19:40.197Z,936
2018-06-21T07:20:00.418Z,936
2018-06-21T07:20:20.601Z,932
2018-06-21T07:20:40.757Z,936
2018-06-21T07:21:00.938Z,932
2018-06-21T07:21:21.134Z,928
2018-06-21T07:21:41.329Z,924
2018-06-21T07:22:01.493Z,924
2018-06-21T07:22:21.708Z,932
2018-06-21T07:22:41.864Z,928
2018-06-21T07:23:02.032Z,932
2018-06-21T07:23:22.197Z,932
2018-06-21T07:23:42.372Z,928
2018-06-21T07:24:02.540Z,932
2018-06-21T07:24:22.681Z,932
2018-06-21T07:24:42.873Z,936
2018-06-21T07:25:03.059Z,932
2018-06-21T07:25:23.261Z,932
2018-06-21T07:25:43.417Z,932
2018-06-21T07:26:03.579Z,940
2018-06-21T07:26:23.742Z,944
2018-06-21T07:26:43.971Z,940
2018-06-21T07:27:04.231Z,940
2018-06-21T07:27:24.320Z,944
2018-06-21T07:27:44.472Z,944
2018-06-21T07:28:04.673Z,948
2018-06-21T07:28:24.917Z,948
2018-06-21T07:28:45.023Z,948
2018-06-21T07:29:05.201Z,952
2018-06-21T07:29:25.344Z,960
2018-06-21T07:29:45.489Z,956
2018-06-21T07:30:05.645Z,956
2018-06-21T07:30:25.797Z,952
2018-06-21T07:30:45.953Z,956
2018-06-21T07:31:06.068Z,956
2018-06-21T07:31:26.218Z,960
2018-06-21T07:31:46.382Z,960
2018-06-21T07:32:06.604Z,960
2018-06-21T07:32:26.792Z,960
2018-06-21T07:32:46.959Z,960
2018-06-21T07:33:07.152Z,956
2018-06-21T07:33:27.340Z,960
2018-06-21T07:33:47.453Z,956
2018-06-21T07:34:07.626Z,956
2018-06-21T07:34:27.852Z,952
2018-06-21T07:34:48.012Z,948
2018-06-21T07:35:08.192Z,948
2018-06-21T07:35:28.360Z,944
2018-06-21T07:35:48.516Z,940
2018-06-21T07:36:08.690Z,940
2018-06-21T07:36:28.877Z,940
2018-06-21T07:36:49.097Z,940
2018-06-21T07:37:09.269Z,936
2018-06-21T07:37:30.208Z,936
2018-06-21T07:37:50.374Z,940
2018-06-21T07:38:10.527Z,940
2018-06-21T07:38:30.681Z,940
2018-06-21T07:38:50.881Z,944
2018-06-21T07:39:11.319Z,944
2018-06-21T07:39:31.438Z,948
2018-06-21T07:39:51.589Z,952
2018-06-21T07:40:11.755Z,956
2018-06-21T07:40:32.009Z,956
2018-06-21T07:40:52.202Z,956
2018-06-21T07:41:12.383Z,952
2018-06-21T07:41:32.552Z,956
2018-06-21T07:41:52.717Z,956
2018-06-21T07:42:12.882Z,956
2018-06-21T07:42:33.083Z,956
2018-06-21T07:42:53.262Z,960
2018-06-21T07:43:13.434Z,956
2018-06-21T07:43:33.614Z,948
2018-06-21T07:43:53.806Z,936
2018-06-21T07:44:14.043Z,944
2018-06-21T07:44:34.228Z,952
2018-06-21T07:44:54.414Z,960
2018-06-21T07:45:14.594Z,968
2018-06-21T07:45:34.758Z,976
2018-06-21T07:45:54.915Z,980
2018-06-21T07:46:15.073Z,988
2018-06-21T07:46:35.240Z,992
2018-06-21T07:46:55.432Z,996
2018-06-21T07:47:15.590Z,1028
2018-06-21T07:47:36.287Z,1072
2018-06-21T07:47:56.523Z,1096
2018-06-21T07:48:16.848Z,1120
2018-06-21T07:48:37.051Z,1124
2018-06-21T07:48:57.259Z,1096
2018-06-21T07:49:17.418Z,1100
2018-06-21T07:49:37.621Z,1104
2018-06-21T07:49:57.873Z,1160
2018-06-21T07:50:18.021Z,1172
2018-06-21T07:50:38.203Z,1108
2018-06-21T07:50:58.393Z,1076
2018-06-21T07:51:18.565Z,1060
2018-06-21T07:51:38.724Z,916
2018-06-21T07:51:58.891Z,864
2018-06-21T07:52:19.065Z,852
2018-06-21T07:52:39.218Z,836
2018-06-21T07:52:59.399Z,824
2018-06-21T07:53:19.550Z,820
2018-06-21T07:53:39.695Z,824
2018-06-21T07:53:59.855Z,828
2018-06-21T07:54:20.043Z,840
2018-06-21T07:54:40.253Z,996
2018-06-21T07:55:00.556Z,1068
2018-06-21T07:55:20.797Z,1092
2018-06-21T07:55:41.039Z,1096
2018-06-21T07:56:01.297Z,1088
2018-06-21T07:56:21.468Z,1120
2018-06-21T07:56:41.649Z,1196
2018-06-21T07:57:01.876Z,1176
2018-06-21T07:57:22.072Z,1116
2018-06-21T07:57:43.161Z,1112
2018-06-21T07:58:03.332Z,1136
2018-06-21T07:58:23.786Z,1112
2018-06-21T07:58:43.959Z,1068
2018-06-21T07:59:04.153Z,1048
2018-06-21T07:59:24.334Z,1112
2018-06-21T07:59:44.501Z,1116
2018-06-21T08:00:04.730Z,1036
2018-06-21T08:00:24.912Z,1100
2018-06-21T08:00:45.046Z,1080
2018-06-21T08:01:05.252Z,1012
2018-06-21T08:01:25.413Z,1072
2018-06-21T08:01:45.654Z,936
2018-06-21T08:02:05.797Z,956
2018-06-21T08:02:25.965Z,1060
2018-06-21T08:02:46.810Z,1128
2018-06-21T08:03:07.042Z,1076
2018-06-21T08:03:27.214Z,1040
2018-06-21T08:03:47.361Z,980
2018-06-21T08:04:07.529Z,964
2018-06-21T08:04:27.677Z,916
2018-06-21T08:04:47.825Z,888
2018-06-21T08:05:08.030Z,868
2018-06-21T08:05:28.202Z,848
2018-06-21T08:05:48.350Z,848
2018-06-21T08:06:08.651Z,844
2018-06-21T08:06:28.814Z,908
2018-06-21T08:06:48.988Z,1064
2018-06-21T08:07:09.141Z,1024
2018-06-21T08:07:29.319Z,1056
2018-06-21T08:07:49.503Z,1084
2018-06-21T08:08:09.678Z,1072
2018-06-21T08:08:29.840Z,1064
2018-06-21T08:08:49.996Z,1068
2018-06-21T08:09:10.237Z,1084
2018-06-21T08:09:30.366Z,1072
2018-06-21T08:09:50.590Z,1072
2018-06-21T08:10:10.722Z,1068
2018-06-21T08:10:30.894Z,868
2018-06-21T08:10:51.070Z,868
2018-06-21T08:11:11.241Z,1056
2018-06-21T08:11:31.451Z,1088
2018-06-21T08:11:51.643Z,1064
2018-06-21T08:12:11.799Z,988
2018-06-21T08:12:31.955Z,964
2018-06-21T08:12:52.244Z,1104
2018-06-21T08:13:12.335Z,1096
2018-06-21T08:13:32.593Z,1088
2018-06-21T08:13:52.838Z,1088
2018-06-21T08:14:13.077Z,1092
2018-06-21T08:14:33.239Z,1096
2018-06-21T08:14:53.429Z,1108
2018-06-21T08:15:13.639Z,1104
2018-06-21T08:15:33.808Z,1104
2018-06-21T08:15:53.975Z,1116
2018-06-21T08:16:14.154Z,1124
2018-06-21T08:16:34.316Z,1124
2018-06-21T08:16:54.597Z,1124
2018-06-21T08:17:14.943Z,1124
2018-06-21T08:17:35.215Z,1116
2018-06-21T08:17:55.511Z,1088
2018-06-21T08:18:15.730Z,972
2018-06-21T08:18:35.914Z,1024
2018-06-21T08:18:56.143Z,916
2018-06-21T08:19:16.344Z,1100
2018-06-21T08:19:36.561Z,1144
2018-06-21T08:19:56.697Z,1144
2018-06-21T08:20:16.992Z,1120
2018-06-21T08:20:37.185Z,1108
2018-06-21T08:20:57.352Z,1120
2018-06-21T08:21:17.563Z,1164
2018-06-21T08:21:37.730Z,1248
2018-06-21T08:21:57.994Z,1292
2018-06-21T08:22:18.165Z,1232
2018-06-21T08:22:38.345Z,1196
2018-06-21T08:22:58.639Z,1012
2018-06-21T08:23:18.877Z,1092
2018-06-21T08:23:39.071Z,1172
2018-06-21T08:23:59.275Z,1144
2018-06-21T08:24:19.518Z,1112
2018-06-21T08:24:39.677Z,1136
2018-06-21T08:24:59.913Z,1176
2018-06-21T08:25:20.102Z,1164
2018-06-21T08:25:40.446Z,1128
2018-06-21T08:26:00.612Z,1136
2018-06-21T08:26:20.825Z,1288
2018-06-21T08:26:41.073Z,1268
2018-06-21T08:27:01.321Z,1156
2018-06-21T08:27:21.531Z,1268
2018-06-21T08:27:41.712Z,1576
2018-06-21T08:28:01.901Z,1940
2018-06-21T08:28:22.091Z,2096
2018-06-21T08:28:42.282Z,1960
2018-06-21T08:29:02.469Z,1680
2018-06-21T08:29:22.705Z,1408
2018-06-21T08:29:42.912Z,1236
2018-06-21T08:30:03.109Z,1152
2018-06-21T08:30:23.398Z,1120
2018-06-21T08:30:43.643Z,1116
2018-06-21T08:31:03.803Z,1136
2018-06-21T08:31:24.053Z,1108
2018-06-21T08:31:44.240Z,1088
2018-06-21T08:32:04.499Z,1140
2018-06-21T08:32:25.490Z,1040
2018-06-21T08:32:45.833Z,1072
2018-06-21T08:33:06.003Z,1128
2018-06-21T08:33:26.171Z,1220
2018-06-21T08:33:46.322Z,1400
2018-06-21T08:34:06.529Z,1308
2018-06-21T08:34:26.759Z,1412
2018-06-21T08:34:46.963Z,1408
2018-06-21T08:35:07.152Z,1556
2018-06-21T08:35:28.282Z,1412
2018-06-21T08:35:48.574Z,1440
2018-06-21T08:36:08.721Z,1464
2018-06-21T08:36:28.877Z,1448
2018-06-21T08:36:49.038Z,1448
2018-06-21T08:37:09.349Z,1424
2018-06-21T08:37:29.494Z,1396
2018-06-21T08:37:49.719Z,1376
2018-06-21T08:38:09.909Z,1392
2018-06-21T08:38:30.093Z,1536
2018-06-21T08:38:50.279Z,1724
2018-06-21T08:39:10.540Z,1928
2018-06-21T08:39:30.834Z,2116
2018-06-21T08:39:51.025Z,2180
2018-06-21T08:40:11.218Z,2128
2018-06-21T08:40:31.514Z,1976
2018-06-21T08:40:51.778Z,1824
2018-06-21T08:41:12.023Z,1720
2018-06-21T08:41:32.239Z,1676
2018-06-21T08:41:52.609Z,1760
2018-06-21T08:42:12.844Z,1856
2018-06-21T08:42:33.092Z,1828
2018-06-21T08:42:53.276Z,1828
2018-06-21T08:43:13.456Z,1784
2018-06-21T08:43:33.684Z,1748
2018-06-21T08:43:53.971Z,1676
2018-06-21T08:44:14.119Z,1764
2018-06-21T08:44:34.362Z,1692
2018-06-21T08:44:54.594Z,1560
2018-06-21T08:45:14.871Z,1484
2018-06-21T08:45:35.052Z,1336
2018-06-21T08:45:55.389Z,1292
2018-06-21T08:46:15.641Z,1324
2018-06-21T08:46:35.823Z,1180
2018-06-21T08:46:56.013Z,1208
2018-06-21T08:47:16.243Z,1296
2018-06-21T08:47:36.538Z,1168
2018-06-21T08:47:56.738Z,1076
2018-06-21T08:48:16.903Z,1060
2018-06-21T08:48:37.089Z,1292
2018-06-21T08:48:57.324Z,1308
2018-06-21T08:49:17.504Z,1344
2018-06-21T08:49:37.677Z,1392
2018-06-21T08:49:57.903Z,1428
2018-06-21T08:50:18.114Z,1468
2018-06-21T08:50:38.302Z,1468
2018-06-21T08:50:58.682Z,1388
2018-06-21T08:51:18.893Z,1324
2018-06-21T08:51:39.113Z,1264
2018-06-21T08:51:59.345Z,1252
2018-06-21T08:52:19.548Z,1216
2018-06-21T08:52:39.748Z,1224
2018-06-21T08:52:59.912Z,1240
2018-06-21T08:53:20.107Z,1272
2018-06-21T08:53:40.267Z,1312
2018-06-21T08:54:00.536Z,1344
2018-06-21T08:54:20.753Z,1348
2018-06-21T08:54:40.944Z,1376
2018-06-21T08:55:01.160Z,1508
2018-06-21T08:55:21.381Z,1500
2018-06-21T08:55:41.560Z,1608
2018-06-21T08:56:01.738Z,1888
2018-06-21T08:56:21.927Z,2132
2018-06-21T08:56:42.141Z,2276
2018-06-21T08:57:02.347Z,2356
2018-06-21T08:57:22.518Z,2348
2018-06-21T08:57:42.658Z,2416
2018-06-21T08:58:02.831Z,2256
2018-06-21T08:58:23.089Z,2056
2018-06-21T08:58:43.259Z,1888
2018-06-21T08:59:03.570Z,1736
2018-06-21T08:59:23.801Z,1712
2018-06-21T08:59:44.025Z,1792
2018-06-21T09:00:04.211Z,1608
2018-06-21T09:00:24.403Z,1708
2018-06-21T09:00:44.607Z,1976
2018-06-21T09:01:04.837Z,2152
2018-06-21T09:01:25.088Z,2208
2018-06-21T09:01:45.496Z,2168
2018-06-21T09:02:05.658Z,2204
2018-06-21T09:02:25.915Z,2424
2018-06-21T09:02:46.173Z,2708
2018-06-21T09:03:06.391Z,2916
2018-06-21T09:03:26.681Z,2952
2018-06-21T09:03:47.022Z,3000
2018-06-21T09:04:07.164Z,3060
2018-06-21T09:04:27.385Z,3008
2018-06-21T09:04:47.614Z,2872
2018-06-21T09:05:07.840Z,2952
2018-06-21T09:05:28.047Z,2604
2018-06-21T09:05:48.229Z,2544
2018-06-21T09:06:08.473Z,2460
2018-06-21T09:06:28.740Z,2436
2018-06-21T09:06:48.906Z,2520
2018-06-21T09:07:09.126Z,2684
2018-06-21T09:07:29.329Z,2800
2018-06-21T09:07:49.498Z,2844
2018-06-21T09:08:09.692Z,2808
2018-06-21T09:08:29.826Z,2672
2018-06-21T09:08:50.043Z,2580
2018-06-21T09:09:10.276Z,2392
2018-06-21T09:09:30.460Z,2168
2018-06-21T09:09:50.696Z,2076
2018-06-21T09:10:10.995Z,2116
2018-06-21T09:10:31.163Z,2252
2018-06-21T09:10:51.337Z,2384
2018-06-21T09:11:11.541Z,2332
2018-06-21T09:11:31.794Z,2392
2018-06-21T09:11:51.938Z,2092
2018-06-21T09:12:12.088Z,1964
2018-06-21T09:12:32.273Z,1820
2018-06-21T09:12:52.471Z,1744
2018-06-21T09:13:12.649Z,1944
2018-06-21T09:13:32.823Z,1808
2018-06-21T09:13:53.100Z,1792
2018-06-21T09:14:13.279Z,1736
2018-06-21T09:14:33.477Z,1660
2018-06-21T09:14:53.648Z,1744
2018-06-21T09:15:14.231Z,1860
2018-06-21T09:15:34.445Z,1816
2018-06-21T09:15:54.630Z,1688
2018-06-21T09:16:14.842Z,1556
2018-06-21T09:16:35.115Z,1376
2018-06-21T09:16:55.296Z,1248
2018-06-21T09:17:15.568Z,1196
2018-06-21T09:17:35.770Z,1228
2018-06-21T09:17:55.945Z,1340
2018-06-21T09:18:16.152Z,1532
2018-06-21T09:18:36.316Z,1720
2018-06-21T09:18:56.608Z,1860
2018-06-21T09:19:16.795Z,1904
2018-06-21T09:19:37.051Z,1856
2018-06-21T09:19:57.286Z,1772
2018-06-21T09:20:17.463Z,1624
2018-06-21T09:20:37.658Z,1568
2018-06-21T09:20:58.659Z,1592
2018-06-21T09:21:18.869Z,1640
2018-06-21T09:21:39.030Z,1616
2018-06-21T09:21:59.277Z,1512
2018-06-21T09:22:19.475Z,1388
2018-06-21T09:22:39.686Z,1320
2018-06-21T09:22:59.875Z,1344
2018-06-21T09:23:20.041Z,1420
2018-06-21T09:23:40.246Z,1516
2018-06-21T09:24:00.436Z,1576
2018-06-21T09:24:20.617Z,1608
2018-06-21T09:24:40.795Z,1648
2018-06-21T09:25:00.953Z,1648
2018-06-21T09:25:21.151Z,1676
2018-06-21T09:25:41.320Z,1712
2018-06-21T09:26:01.518Z,1736
2018-06-21T09:26:21.664Z,1744
2018-06-21T09:26:41.857Z,1728
2018-06-21T09:27:02.048Z,1716
2018-06-21T09:27:22.211Z,1784
2018-06-21T09:27:42.448Z,1868
2018-06-21T09:28:02.609Z,1892
2018-06-21T09:28:22.787Z,1852
2018-06-21T09:28:42.945Z,1796
2018-06-21T09:29:03.162Z,1832
2018-06-21T09:29:23.345Z,1904
2018-06-21T09:29:43.582Z,2020
2018-06-21T09:30:03.790Z,2108
2018-06-21T09:30:23.953Z,2148
2018-06-21T09:30:44.166Z,2128
2018-06-21T09:31:04.407Z,2120
2018-06-21T09:31:24.581Z,2052
2018-06-21T09:31:44.881Z,1928
2018-06-21T09:32:05.057Z,1908
2018-06-21T09:32:25.239Z,1988
2018-06-21T09:32:45.428Z,2148
2018-06-21T09:33:05.630Z,2264
2018-06-21T09:33:25.867Z,2220
2018-06-21T09:33:46.127Z,2116
2018-06-21T09:34:06.363Z,2020
2018-06-21T09:34:26.538Z,1992
2018-06-21T09:34:46.746Z,2212
2018-06-21T09:35:06.945Z,2404
2018-06-21T09:35:27.192Z,2416
2018-06-21T09:35:47.367Z,2072
2018-06-21T09:36:07.584Z,2116
2018-06-21T09:36:27.799Z,1800
2018-06-21T09:36:48.000Z,1716
2018-06-21T09:37:08.166Z,1604
2018-06-21T09:37:28.314Z,1540
2018-06-21T09:37:48.584Z,1524
2018-06-21T09:38:09.800Z,1548
2018-06-21T09:38:29.984Z,1668
2018-06-21T09:38:50.234Z,1700
2018-06-21T09:39:10.399Z,1708
2018-06-21T09:39:30.626Z,1644
2018-06-21T09:39:50.823Z,1756
2018-06-21T09:40:11.071Z,2036
2018-06-21T09:40:31.264Z,2312
2018-06-21T09:40:51.526Z,2480
2018-06-21T09:41:11.772Z,2672
2018-06-21T09:41:31.943Z,2712
2018-06-21T09:41:52.157Z,2684
2018-06-21T09:42:12.416Z,2540
2018-06-21T09:42:32.610Z,2412
2018-06-21T09:42:52.804Z,2412
2018-06-21T09:43:13.017Z,2540
2018-06-21T09:43:33.224Z,2520
2018-06-21T09:44:03.820Z,2444
2018-06-21T09:44:24.436Z,2376
2018-06-21T09:44:44.640Z,2332
2018-06-21T09:45:04.817Z,2440
2018-06-21T09:45:25.015Z,2496
2018-06-21T09:45:45.235Z,2564
2018-06-21T09:46:05.413Z,2560
2018-06-21T09:46:36.659Z,2416
2018-06-21T09:46:56.871Z,2472
2018-06-21T09:47:17.047Z,2600
2018-06-21T09:47:37.253Z,2604
2018-06-21T09:47:57.462Z,2688
2018-06-21T09:48:17.695Z,2916
2018-06-21T09:48:37.837Z,2720
2018-06-21T09:48:58.015Z,2612
2018-06-21T09:49:18.226Z,2564
2018-06-21T09:49:38.421Z,2648
2018-06-21T09:49:58.602Z,2712
2018-06-21T09:50:18.793Z,2896
2018-06-21T09:50:39.015Z,2800
2018-06-21T09:50:59.287Z,2476
2018-06-21T09:51:19.436Z,2328
2018-06-21T09:51:39.651Z,2188
2018-06-21T09:51:59.836Z,2056
2018-06-21T09:52:20.029Z,1992
2018-06-21T09:52:40.453Z,1948
2018-06-21T09:53:00.637Z,1928
2018-06-21T09:53:20.829Z,2188
2018-06-21T09:53:41.022Z,2356
2018-06-21T09:54:01.244Z,2268
2018-06-21T09:54:21.463Z,2444
2018-06-21T09:54:41.652Z,2452
2018-06-21T09:55:01.852Z,2412
2018-06-21T09:55:22.068Z,2344
2018-06-21T09:55:42.297Z,2444
2018-06-21T09:56:02.499Z,2588
2018-06-21T09:56:22.706Z,2660
2018-06-21T09:56:42.897Z,2648
2018-06-21T09:57:03.083Z,2672
2018-06-21T09:57:23.253Z,2712
2018-06-21T09:57:43.462Z,2684
2018-06-21T09:58:03.610Z,2624
2018-06-21T09:58:23.845Z,2580
2018-06-21T09:58:44.021Z,2572
2018-06-21T09:59:04.801Z,2580
2018-06-21T09:59:24.970Z,2632
2018-06-21T09:59:45.277Z,2588
2018-06-21T10:00:05.445Z,2496
2018-06-21T10:00:25.761Z,2300
2018-06-21T10:00:45.952Z,2144
2018-06-21T10:01:06.228Z,1956
2018-06-21T10:01:26.335Z,1760
2018-06-21T10:01:46.500Z,1648
2018-06-21T10:02:06.714Z,1588
2018-06-21T10:02:26.883Z,1536
2018-06-21T10:02:47.081Z,1492
2018-06-21T10:03:07.263Z,1456
2018-06-21T10:03:27.428Z,1444
2018-06-21T10:03:47.648Z,1444
2018-06-21T10:04:07.912Z,1432
2018-06-21T10:04:28.097Z,1420
2018-06-21T10:04:48.287Z,1440
2018-06-21T10:05:08.565Z,1536
2018-06-21T10:05:29.296Z,1620
2018-06-21T10:05:49.566Z,1628
2018-06-21T10:06:09.823Z,1640
2018-06-21T10:06:30.073Z,1628
2018-06-21T10:06:50.392Z,1596
2018-06-21T10:07:10.761Z,1560
2018-06-21T10:07:30.840Z,1548
2018-06-21T10:07:51.035Z,1520
2018-06-21T10:08:11.261Z,1476
2018-06-21T10:08:31.474Z,1508
2018-06-21T10:08:51.794Z,1532
2018-06-21T10:09:11.975Z,1568
2018-06-21T10:09:32.146Z,1664
2018-06-21T10:09:52.393Z,1748
2018-06-21T10:10:12.680Z,1752
2018-06-21T10:10:32.901Z,1704
2018-06-21T10:10:53.075Z,1668
2018-06-21T10:11:13.333Z,1600
2018-06-21T10:11:33.599Z,1556
2018-06-21T10:11:53.776Z,1560
2018-06-21T10:12:13.999Z,1556
2018-06-21T10:12:34.208Z,1628
2018-06-21T10:12:54.524Z,1900
2018-06-21T10:13:14.737Z,2140
2018-06-21T10:13:34.900Z,2176
2018-06-21T10:13:55.098Z,2064
2018-06-21T10:14:15.269Z,2004
2018-06-21T10:14:35.419Z,1912
2018-06-21T10:14:55.654Z,1792
2018-06-21T10:15:15.897Z,1696
2018-06-21T10:15:36.126Z,1608
2018-06-21T10:15:56.257Z,1532
2018-06-21T10:16:16.519Z,1500
2018-06-21T10:16:36.916Z,1488
2018-06-21T10:16:57.142Z,1508
2018-06-21T10:17:17.386Z,1548
2018-06-21T10:17:37.684Z,1552
2018-06-21T10:17:57.896Z,1568
2018-06-21T10:18:18.246Z,1592
2018-06-21T10:18:38.473Z,1624
2018-06-21T10:18:58.662Z,1680
2018-06-21T10:19:18.851Z,1760
2018-06-21T10:19:39.062Z,1764
2018-06-21T10:19:59.268Z,1732